Time;durP1;ratioP1;P1;durP2;ratioP2;P2;SDS_P1;SDS_P2;PMS_P1;PMS_P2;Temp;Humidity;BMP_temperature;BMP_pressure;BME280_temperature;BME280_humidity;BME280_pressure;Samples;Min_cycle;Max_cycle;Signal;HPM_P1;HPM_P2
2023/04/01 00:01:35;;;;;;;3.45;1.60;;;8.10;99.90;;;7.14;100.00;96005.66;5060333;28;20437;-76
2023/04/01 00:04:01;;;;;;;7.05;1.70;;;8.10;99.90;;;7.11;100.00;96006.16;5061826;28;20955;-76
2023/04/01 00:06:28;;;;;;;2.75;1.63;;;8.10;99.90;;;7.19;100.00;96003.00;5062021;28;20412;-77
2023/04/01 00:08:54;;;;;;;3.55;1.80;;;8.20;99.90;;;7.19;100.00;96003.81;5060716;28;20404;-76
2023/04/01 00:11:20;;;;;;;5.37;1.57;;;8.20;99.90;;;7.22;100.00;96007.72;5062685;28;20395;-77
2023/04/01 00:13:48;;;;;;;4.57;1.60;;;8.20;99.90;;;7.15;100.00;96005.34;5063527;28;20892;-77
2023/04/01 00:16:15;;;;;;;5.65;1.63;;;8.10;99.90;;;7.12;100.00;96003.28;5044748;28;20400;-76
2023/04/01 00:18:41;;;;;;;6.38;1.77;;;8.20;99.90;;;7.13;100.00;96007.47;5041748;28;20499;-77
2023/04/01 00:21:07;;;;;;;5.25;1.60;;;8.20;99.90;;;7.13;100.00;96004.84;5059340;28;21036;-76
2023/04/01 00:23:35;;;;;;;5.43;1.75;;;8.10;99.90;;;7.17;100.00;95999.84;5061548;28;21258;-76
2023/04/01 00:26:02;;;;;;;5.30;1.67;;;8.20;99.90;;;7.23;100.00;95998.78;5062159;28;20466;-76
2023/04/01 00:28:29;;;;;;;6.93;1.80;;;8.20;99.90;;;7.22;100.00;96003.25;5061935;28;20743;-76
2023/04/01 00:30:55;;;;;;;4.68;1.70;;;8.20;99.90;;;7.18;100.00;96004.84;5059800;28;20420;-76
2023/04/01 00:33:22;;;;;;;5.35;1.80;;;8.20;99.90;;;7.20;100.00;96010.66;5043768;28;20410;-76
2023/04/01 00:35:48;;;;;;;7.47;1.92;;;8.20;99.90;;;7.17;100.00;96002.47;5041592;28;20415;-77
2023/04/01 00:38:14;;;;;;;4.20;1.92;;;8.20;99.90;;;7.14;100.00;96011.66;5062118;28;20455;-77
2023/04/01 00:40:43;;;;;;;6.20;2.13;;;8.10;99.90;;;7.13;100.00;96015.38;5061094;28;20461;-76
2023/04/01 00:43:13;;;;;;;7.45;1.83;;;8.10;99.90;;;7.21;100.00;96017.50;5043413;28;20416;-76
2023/04/01 00:45:42;;;;;;;8.67;2.17;;;8.20;99.90;;;7.21;100.00;96025.38;5041957;28;20421;-76
2023/04/01 00:48:14;;;;;;;7.57;1.85;;;8.20;99.90;;;7.18;100.00;96017.22;5062409;28;20413;-76
2023/04/01 00:50:48;;;;;;;7.57;1.90;;;8.20;99.90;;;7.24;100.00;96018.78;5059876;28;20466;-76
2023/04/01 00:53:16;;;;;;;5.88;1.83;;;8.20;99.90;;;7.13;100.00;96022.47;5062264;28;20392;-76
2023/04/01 00:55:50;;;;;;;4.25;1.83;;;8.10;99.90;;;7.21;100.00;96024.59;5042225;28;20405;-76
2023/04/01 00:58:21;;;;;;;7.47;1.73;;;8.20;99.90;;;7.18;100.00;96023.28;5059426;28;20484;-76
2023/04/01 01:00:50;;;;;;;4.75;1.50;;;8.20;99.90;;;7.19;100.00;96027.47;5062045;28;20394;-76
2023/04/01 01:03:16;;;;;;;3.70;1.70;;;8.20;99.90;;;7.24;100.00;96026.69;5059250;28;20485;-76
2023/04/01 01:06:23;;;;;;;6.70;2.00;;;8.20;99.90;;;7.18;100.00;96019.84;5060929;28;20408;-76
2023/04/01 01:09:21;;;;;;;4.90;2.00;;;8.20;99.90;;;7.13;100.00;96023.28;5060790;28;20400;-76
2023/04/01 01:11:55;;;;;;;8.63;1.80;;;8.20;99.90;;;7.09;100.00;96019.56;5060526;28;20395;-76
2023/04/01 01:14:36;;;;;;;6.75;1.83;;;8.10;99.90;;;7.05;100.00;96015.09;5059539;28;20415;-76
2023/04/01 01:17:13;;;;;;;4.72;1.80;;;8.00;99.90;;;7.09;100.00;96013.50;5058645;28;20408;-76
2023/04/01 01:20:01;;;;;;;10.70;2.22;;;8.10;99.90;;;7.11;100.00;96011.41;5049445;28;20400;-76
2023/04/01 01:23:03;;;;;;;8.25;2.00;;;8.10;99.90;;;7.12;100.00;96016.44;5061262;28;20399;-76
2023/04/01 01:25:39;;;;;;;6.85;1.90;;;8.10;99.90;;;7.13;100.00;96015.38;5060667;28;20480;-76
2023/04/01 01:28:23;;;;;;;7.03;1.60;;;8.10;99.90;;;7.16;100.00;96022.72;5064418;28;20408;-76
2023/04/01 01:30:57;;;;;;;3.85;1.80;;;8.20;99.90;;;7.16;100.00;96016.69;5064701;28;20424;-75
2023/04/01 01:33:44;;;;;;;6.28;1.75;;;8.20;99.90;;;7.18;100.00;96018.00;5064138;28;20748;-76
2023/04/01 01:36:14;;;;;;;5.17;1.70;;;8.20;99.90;;;7.21;100.00;96024.59;5064901;28;20393;-76
2023/04/01 01:38:41;;;;;;;4.80;1.47;;;8.20;99.90;;;7.24;100.00;96013.53;5063614;28;20400;-75
2023/04/01 01:41:09;;;;;;;11.30;2.35;;;8.20;99.90;;;7.20;100.00;96026.44;5065934;28;20397;-76
2023/04/01 01:43:39;;;;;;;2.80;1.60;;;8.20;99.90;;;7.22;100.00;96019.03;5063384;28;20507;-76
2023/04/01 01:46:09;;;;;;;8.27;2.10;;;8.20;99.90;;;7.22;100.00;96031.41;5064099;28;20415;-76
2023/04/01 01:48:38;;;;;;;5.17;1.77;;;8.20;99.90;;;7.27;100.00;96028.81;5065122;28;20460;-76
2023/04/01 01:51:05;;;;;;;5.75;1.60;;;8.30;99.90;;;7.29;100.00;96027.47;5063661;28;20880;-76
2023/04/01 01:53:33;;;;;;;6.80;1.70;;;8.30;99.90;;;7.26;100.00;96022.75;5063272;28;20439;-76
2023/04/01 01:55:59;;;;;;;5.85;1.70;;;8.30;99.90;;;7.24;100.00;96022.22;5065630;28;20496;-76
2023/04/01 01:58:30;;;;;;;5.30;2.00;;;8.20;99.90;;;7.42;100.00;96020.91;5064315;28;20408;-76
2023/04/01 02:01:00;;;;;;;5.78;1.50;;;8.30;99.90;;;7.36;100.00;96014.06;5064795;28;20869;-76
2023/04/01 02:03:30;;;;;;;6.25;1.63;;;8.30;99.90;;;7.21;100.00;96019.34;5063846;28;20480;-76
2023/04/01 02:05:59;;;;;;;9.63;1.73;;;8.20;99.90;;;7.16;100.00;96014.84;5062571;28;20898;-76
2023/04/01 02:08:31;;;;;;;2.28;1.33;;;8.10;99.90;;;7.13;100.00;96012.75;5063796;28;20792;-76
2023/04/01 02:11:02;;;;;;;5.20;1.70;;;8.20;99.90;;;7.14;100.00;96013.53;5061748;28;20490;-76
2023/04/01 02:13:34;;;;;;;3.38;1.80;;;8.20;99.90;;;7.14;100.00;96013.53;5064747;28;20482;-76
2023/04/01 02:16:08;;;;;;;2.30;1.33;;;8.10;99.90;;;7.09;100.00;96008.25;5062608;28;20397;-76
2023/04/01 02:18:38;;;;;;;5.53;1.63;;;8.10;99.90;;;7.11;100.00;96022.75;5062561;28;20936;-75
2023/04/01 02:21:05;;;;;;;4.45;1.48;;;8.10;99.90;;;7.10;100.00;96020.38;5063722;28;20403;-76
2023/04/01 02:23:35;;;;;;;4.82;1.48;;;8.10;99.90;;;7.14;100.00;96026.69;5064157;28;20481;-76
2023/04/01 02:26:05;;;;;;;5.82;1.67;;;8.10;99.90;;;7.14;100.00;96024.06;5065210;28;20410;-75
2023/04/01 02:28:33;;;;;;;5.60;1.50;;;8.20;99.90;;;7.17;100.00;96024.31;5062755;28;20396;-76
2023/04/01 02:31:02;;;;;;;5.55;1.75;;;8.20;99.90;;;7.20;100.00;96025.66;5064067;28;20392;-76
2023/04/01 02:33:29;;;;;;;6.55;1.60;;;8.20;99.90;;;7.19;100.00;96024.84;5063437;28;20398;-76
2023/04/01 02:35:55;;;;;;;5.63;1.60;;;8.20;99.90;;;7.12;100.00;96020.91;5062105;28;20438;-76
2023/04/01 02:38:22;;;;;;;4.88;1.30;;;8.10;99.90;;;7.05;100.00;96018.53;5061808;28;20488;-76
2023/04/01 02:40:50;;;;;;;4.65;1.58;;;8.00;99.90;;;7.04;100.00;96021.41;5062853;28;20404;-76
2023/04/01 02:43:19;;;;;;;3.70;1.27;;;8.10;99.90;;;7.11;100.00;96014.84;5064427;28;20430;-76
2023/04/01 02:45:45;;;;;;;3.35;1.58;;;8.10;99.90;;;7.06;100.00;96017.47;5062807;28;20449;-75
2023/04/01 02:48:12;;;;;;;4.20;1.38;;;8.00;99.90;;;7.05;100.00;96023.78;5044641;28;20892;-76
2023/04/01 02:50:38;;;;;;;3.63;1.40;;;8.10;99.90;;;7.02;100.00;96026.13;5061574;28;20960;-76
2023/04/01 02:53:06;;;;;;;5.32;1.40;;;8.00;99.90;;;6.97;100.00;96017.19;5045544;28;20399;-76
2023/04/01 02:55:32;;;;;;;3.40;1.40;;;7.90;99.90;;;6.95;100.00;96018.50;5066401;28;20879;-75
2023/04/01 02:57:58;;;;;;;2.28;1.27;;;8.00;99.90;;;6.97;100.00;96011.16;5061426;28;20427;-76
2023/04/01 03:00:25;;;;;;;4.30;1.40;;;8.00;99.90;;;7.00;100.00;96018.50;5062117;28;20883;-76
2023/04/01 03:02:51;;;;;;;4.30;1.23;;;8.00;99.90;;;7.02;100.00;96023.50;5062128;28;20427;-76
2023/04/01 03:05:18;;;;;;;3.05;1.30;;;8.00;99.90;;;7.23;100.00;96025.88;5045712;28;20649;-76
2023/04/01 03:07:44;;;;;;;1.83;1.30;;;8.10;99.90;;;7.20;100.00;96023.00;5042949;28;20519;-76
2023/04/01 03:10:10;;;;;;;4.40;1.40;;;8.20;99.90;;;7.16;100.00;96025.38;5062755;28;20413;-75
2023/04/01 03:12:36;;;;;;;3.85;1.40;;;8.20;99.90;;;7.16;100.00;96025.38;5061368;28;20402;-75
2023/04/01 03:15:03;;;;;;;4.05;1.45;;;8.20;99.90;;;7.15;100.00;96026.41;5064307;28;20482;-76
2023/04/01 03:17:30;;;;;;;2.92;1.70;;;8.20;99.90;;;7.06;100.00;96022.75;5062165;28;20404;-76
2023/04/01 03:19:56;;;;;;;8.98;1.50;;;8.00;99.90;;;7.04;100.00;96024.03;5063140;28;20392;-76
2023/04/01 03:22:22;;;;;;;3.72;1.30;;;8.00;99.90;;;6.91;100.00;96014.84;5061429;28;20398;-75
2023/04/01 03:24:48;;;;;;;2.00;1.30;;;7.90;99.90;;;6.93;100.00;96015.34;5062226;28;20769;-75
2023/04/01 03:27:14;;;;;;;3.00;1.35;;;7.90;99.90;;;6.88;100.00;96016.13;5063381;28;20487;-75
2023/04/01 03:29:40;;;;;;;4.75;1.35;;;7.90;99.90;;;6.90;100.00;96016.66;5061148;28;20939;-75
2023/04/01 03:32:06;;;;;;;3.20;1.40;;;7.90;99.90;;;6.89;100.00;96022.19;5063999;28;20476;-76
2023/04/01 03:34:34;;;;;;;4.22;1.30;;;7.90;99.90;;;6.94;100.00;96025.59;5061573;28;20410;-75
2023/04/01 03:37:00;;;;;;;4.88;1.20;;;7.90;99.90;;;6.99;100.00;96019.59;5063875;28;20761;-75
2023/04/01 03:39:26;;;;;;;3.88;1.20;;;8.00;99.90;;;6.97;100.00;96013.78;5061135;28;20504;-75
2023/04/01 03:41:52;;;;;;;4.18;1.30;;;8.00;99.90;;;6.95;100.00;96019.28;5063704;28;20394;-75
2023/04/01 03:44:18;;;;;;;1.33;1.17;;;8.00;99.90;;;6.91;100.00;96018.25;5042957;28;20516;-75
2023/04/01 03:46:44;;;;;;;1.90;1.27;;;7.90;99.90;;;6.93;100.00;96018.75;5063676;28;20433;-75
2023/04/01 03:49:11;;;;;;;4.30;1.40;;;8.00;99.90;;;7.05;100.00;96018.53;5060710;28;20461;-75
2023/04/01 03:51:39;;;;;;;3.92;1.35;;;8.00;99.90;;;7.12;100.00;96011.16;5062585;28;20431;-75
2023/04/01 03:54:05;;;;;;;3.03;1.30;;;8.10;99.90;;;6.92;100.00;96009.28;5061442;28;20487;-75
2023/04/01 03:56:31;;;;;;;2.42;1.27;;;8.00;99.90;;;6.97;100.00;96003.25;5063560;28;20398;-75
2023/04/01 03:58:57;;;;;;;1.50;1.20;;;8.00;99.90;;;6.88;100.00;96004.81;5060543;28;20413;-75
2023/04/01 04:01:24;;;;;;;1.48;1.10;;;7.90;99.90;;;6.80;100.00;96003.50;5062024;28;20494;-75
2023/04/01 04:03:50;;;;;;;2.60;1.38;;;7.80;99.90;;;6.68;100.00;96012.69;5061937;28;20782;-76
2023/04/01 04:06:18;;;;;;;4.15;1.30;;;7.70;99.90;;;6.95;100.00;96005.34;5060576;28;20902;-75
2023/04/01 04:08:46;;;;;;;4.22;1.30;;;7.80;99.90;;;6.86;100.00;95997.19;5062090;28;20910;-75
2023/04/01 04:11:12;;;;;;;3.95;1.30;;;7.80;99.90;;;6.69;100.00;95998.50;5061791;28;20401;-75
2023/04/01 04:13:38;;;;;;;3.90;1.30;;;7.70;99.90;;;6.71;100.00;96005.03;5060196;28;20552;-76
2023/04/01 04:16:05;;;;;;;6.35;1.50;;;7.70;99.90;;;6.74;100.00;96006.38;5060383;28;20405;-76
2023/04/01 04:18:31;;;;;;;3.80;1.42;;;7.70;99.90;;;6.70;100.00;96000.84;5060220;28;20948;-75
2023/04/01 04:20:57;;;;;;;3.83;1.45;;;7.70;99.90;;;6.74;100.00;96001.91;5041806;28;20492;-75
2023/04/01 04:23:23;;;;;;;2.07;1.50;;;7.80;99.90;;;6.81;100.00;96004.28;5061865;28;20392;-75
2023/04/01 04:25:59;;;;;;;4.75;1.40;;;7.80;99.90;;;6.65;100.00;95994.78;5059444;28;20904;-75
2023/04/01 04:28:26;;;;;;;6.45;1.58;;;7.60;99.90;;;6.61;100.00;95991.91;5059775;28;20824;-76
2023/04/01 04:30:52;;;;;;;3.75;1.40;;;7.70;99.90;;;6.58;100.00;95997.66;5061268;28;20401;-75
2023/04/01 04:33:18;;;;;;;2.97;1.25;;;7.60;99.90;;;6.55;100.00;96000.78;5059883;28;20406;-76
2023/04/01 04:35:44;;;;;;;2.95;1.30;;;7.60;99.90;;;6.53;100.00;95997.66;5059168;28;20908;-75
2023/04/01 04:38:10;;;;;;;4.13;1.33;;;7.60;99.90;;;6.58;100.00;95997.66;5062007;28;20431;-75
2023/04/01 04:40:37;;;;;;;5.40;1.63;;;7.60;99.90;;;6.57;100.00;95996.06;5058979;28;20483;-75
2023/04/01 04:43:04;;;;;;;2.05;1.17;;;7.60;99.90;;;6.55;100.00;95990.28;5060065;28;20740;-76
2023/04/01 04:45:31;;;;;;;2.40;1.40;;;7.60;99.90;;;6.56;100.00;96003.16;5060496;28;20438;-75
2023/04/01 04:47:57;;;;;;;2.53;1.23;;;7.60;99.90;;;6.50;100.00;95990.28;5043679;28;20415;-75
2023/04/01 04:50:25;;;;;;;3.72;1.33;;;7.50;99.90;;;6.50;100.00;95998.94;5061281;28;20494;-76
2023/04/01 04:52:51;;;;;;;3.30;1.50;;;7.50;99.90;;;6.57;100.00;95993.44;5060939;28;20413;-76
2023/04/01 04:55:17;;;;;;;4.30;1.30;;;7.60;99.90;;;6.62;100.00;95990.81;5062378;28;20412;-75
2023/04/01 04:57:43;;;;;;;2.55;1.40;;;7.60;99.90;;;6.57;100.00;95988.19;5061842;28;20486;-75
2023/04/01 05:00:11;;;;;;;2.75;1.30;;;7.60;99.90;;;6.53;100.00;95984.50;5060259;28;20547;-75
2023/04/01 05:02:37;;;;;;;4.85;1.50;;;7.60;99.90;;;6.51;100.00;95981.34;5059356;28;20416;-75
2023/04/01 05:05:05;;;;;;;4.07;1.30;;;7.60;99.90;;;6.48;100.00;95982.63;5061355;28;20416;-75
2023/04/01 05:07:31;;;;;;;3.53;1.40;;;7.50;99.90;;;6.51;100.00;95982.13;5060797;28;20405;-75
2023/04/01 05:09:57;;;;;;;3.50;1.30;;;7.50;99.90;;;6.55;100.00;95977.94;5065995;28;20984;-76
2023/04/01 05:12:22;;;;;;;3.10;1.30;;;7.60;99.90;;;6.53;100.00;95976.63;5059959;28;20398;-76
2023/04/01 05:14:48;;;;;;;2.08;1.30;;;7.60;99.90;;;6.52;100.00;95973.22;5058721;28;20420;-76
2023/04/01 05:17:15;;;;;;;2.88;1.27;;;7.60;99.90;;;6.57;100.00;95980.31;5058176;28;20403;-75
2023/04/01 05:19:41;;;;;;;6.97;1.43;;;7.60;99.90;;;6.52;100.00;95981.09;5057022;28;20409;-75
2023/04/01 05:22:07;;;;;;;6.30;2.08;;;7.60;99.90;;;6.56;100.00;95971.63;5061510;28;20430;-75
2023/04/01 05:24:34;;;;;;;3.95;1.63;;;7.60;99.90;;;6.54;100.00;95971.09;5060717;28;20421;-76
2023/04/01 05:27:00;;;;;;;5.15;1.63;;;7.60;99.90;;;6.66;100.00;95965.59;5059523;28;20424;-76
2023/04/01 05:29:26;;;;;;;4.23;1.63;;;7.60;99.90;;;6.68;100.00;95960.88;5042618;28;20952;-76
2023/04/01 05:31:52;;;;;;;3.67;1.40;;;7.60;99.90;;;6.70;100.00;95955.34;5040368;28;20396;-76
2023/04/01 05:34:19;;;;;;;5.97;1.75;;;7.70;99.90;;;6.73;100.00;95966.13;5061155;28;20402;-76
2023/04/01 05:36:45;;;;;;;4.63;1.60;;;7.70;99.90;;;6.83;100.00;95952.22;5055998;28;20408;-75
2023/04/01 05:39:11;;;;;;;4.65;1.58;;;7.80;99.90;;;6.86;100.00;95968.25;5042386;28;20423;-76
2023/04/01 05:41:38;;;;;;;5.37;1.73;;;7.90;99.90;;;7.05;100.00;95959.84;5058871;28;20405;-75
2023/04/01 05:44:05;;;;;;;4.97;1.60;;;8.00;99.90;;;7.02;100.00;95958.53;5059200;28;20405;-75
2023/04/01 05:46:31;;;;;;;6.13;1.70;;;8.00;99.90;;;7.01;100.00;95951.69;5059203;28;20804;-75
2023/04/01 05:48:57;;;;;;;5.20;2.05;;;8.00;99.90;;;7.15;100.00;95955.38;5059148;28;20398;-75
2023/04/01 05:51:24;;;;;;;6.75;1.60;;;8.10;99.90;;;7.20;100.00;95949.31;5059078;28;20815;-75
2023/04/01 05:53:50;;;;;;;5.60;1.75;;;8.10;99.90;;;7.18;100.00;95952.22;5060122;28;20418;-75
2023/04/01 05:56:16;;;;;;;3.42;1.73;;;8.20;99.90;;;7.16;100.00;95956.94;5060834;28;20907;-75
2023/04/01 05:58:42;;;;;;;3.83;1.50;;;8.10;99.90;;;7.11;100.00;95956.16;5058763;28;20496;-75
2023/04/01 06:01:11;;;;;;;2.30;1.47;;;8.10;99.90;;;7.21;100.00;95953.53;5056978;28;20445;-76
2023/04/01 06:03:37;;;;;;;5.53;1.60;;;8.20;99.90;;;7.19;100.00;95948.53;5055956;28;20398;-76
2023/04/01 06:06:03;;;;;;;3.35;1.50;;;8.20;99.90;;;7.35;100.00;95944.84;5052715;28;20409;-76
2023/04/01 06:08:32;;;;;;;3.50;1.33;;;8.30;99.90;;;7.28;100.00;95946.97;5055223;28;20397;-75
2023/04/01 06:11:18;;;;;;;4.87;1.53;;;8.30;99.90;;;7.37;100.00;95939.28;5052793;28;20409;-75
2023/04/01 06:14:11;;;;;;;4.65;1.60;;;8.40;99.90;;;7.47;100.00;95946.38;5057425;28;20427;-77
2023/04/01 06:16:58;;;;;;;4.25;1.50;;;8.30;99.90;;;7.49;100.00;95946.91;5074489;28;20896;-77
2023/04/01 06:19:41;;;;;;;3.80;1.70;;;8.50;99.90;;;7.51;100.00;95932.44;5074497;28;20400;-77
2023/04/01 06:22:51;;;;;;;6.93;1.70;;;8.40;99.90;;;7.76;100.00;95942.09;5073854;28;20415;-77
2023/04/01 06:25:50;;;;;;;3.80;1.60;;;8.60;99.90;;;7.80;100.00;95942.38;5062197;28;20470;-76
2023/04/01 06:28:50;;;;;;;4.30;1.45;;;8.70;99.90;;;7.76;100.00;95942.09;5056255;28;20413;-77
2023/04/01 06:31:32;;;;;;;7.03;1.70;;;8.70;99.90;;;7.96;100.00;95947.31;5053560;28;21033;-77
2023/04/01 06:34:29;;;;;;;3.78;1.65;;;8.90;99.90;;;7.97;100.00;95940.97;5054071;28;20393;-77
2023/04/01 06:37:12;;;;;;;3.35;1.50;;;8.90;99.90;;;7.93;100.00;95947.06;5051961;28;20424;-76
2023/04/01 06:40:08;;;;;;;3.95;1.63;;;8.80;99.90;;;7.95;100.00;95937.84;5053604;28;20413;-76
2023/04/01 06:42:52;;;;;;;5.07;1.60;;;8.90;99.90;;;7.93;100.00;95952.31;5053333;28;20907;-73
2023/04/01 06:45:36;;;;;;;8.00;1.80;;;8.80;99.90;;;7.86;100.00;95949.19;5035247;28;20918;-72
2023/04/01 06:48:21;;;;;;;3.70;1.40;;;8.80;99.90;;;8.05;100.00;95950.16;5073454;28;20404;-73
2023/04/01 06:50:56;;;;;;;4.47;1.45;;;8.90;99.90;;;7.95;100.00;95943.09;5071488;28;20406;-75
2023/04/01 06:53:33;;;;;;;2.80;1.30;;;8.90;99.90;;;7.88;100.00;95939.97;5061708;28;20420;-75
2023/04/01 06:56:07;;;;;;;4.17;1.77;;;8.80;99.90;;;8.02;100.00;95940.97;5070111;28;20402;-75
2023/04/01 06:58:40;;;;;;;5.40;1.30;;;8.90;99.90;;;7.96;100.00;95944.69;5062743;28;20456;-75
2023/04/01 07:01:12;;;;;;;2.75;1.20;;;8.90;99.90;;;7.94;100.00;95951.28;5062881;28;20871;-77
2023/04/01 07:03:44;;;;;;;5.10;1.40;;;8.90;99.90;;;7.98;100.00;95954.94;5062579;28;20396;-75
2023/04/01 07:06:20;;;;;;;3.75;1.40;;;8.90;99.90;;;7.87;100.00;95942.88;5065725;28;20423;-77
2023/04/01 07:08:48;;;;;;;3.40;1.40;;;8.80;99.90;;;7.89;100.00;95943.41;5068100;28;20451;-76
2023/04/01 07:11:26;;;;;;;4.30;1.30;;;8.80;99.90;;;7.99;100.00;95948.63;5070161;28;20438;-76
2023/04/01 07:13:58;;;;;;;3.17;1.35;;;8.90;99.90;;;8.13;100.00;95954.88;5069807;28;20408;-76
2023/04/01 07:16:29;;;;;;;6.28;1.45;;;9.00;99.90;;;8.10;100.00;95950.97;5069907;28;20415;-76
2023/04/01 07:19:02;;;;;;;4.80;1.48;;;9.00;99.90;;;8.27;100.00;95950.59;5067922;28;20447;-76
2023/04/01 07:21:35;;;;;;;2.40;1.30;;;9.20;99.90;;;8.42;100.00;95947.91;5072719;28;20489;-76
2023/04/01 07:24:06;;;;;;;3.40;1.20;;;9.30;99.90;;;8.50;100.00;95955.25;5071884;28;20400;-76
2023/04/01 07:26:32;;;;;;;2.78;1.40;;;9.40;99.90;;;8.47;100.00;95950.53;5072179;28;20427;-76
2023/04/01 07:29:00;;;;;;;2.97;1.48;;;9.40;99.90;;;8.40;100.00;95955.31;5065715;28;20413;-76
2023/04/01 07:31:42;;;;;;;3.63;1.27;;;9.30;99.90;;;8.21;100.00;95956.16;5047135;28;20904;-76
2023/04/01 07:34:16;;;;;;;4.22;1.40;;;9.10;99.90;;;8.15;100.00;95964.09;5066432;28;20401;-76
2023/04/01 07:36:48;;;;;;;4.85;1.52;;;9.10;99.90;;;8.15;100.00;95972.00;5072633;28;20894;-76
2023/04/01 07:39:30;;;;;;;4.27;1.40;;;9.00;99.90;;;8.26;100.00;95966.69;5072333;28;20548;-76
2023/04/01 07:42:04;;;;;;;3.10;1.30;;;9.10;99.90;;;8.22;100.00;95971.72;5071987;28;20392;-76
2023/04/01 07:44:44;;;;;;;3.67;1.35;;;9.10;99.90;;;8.41;100.00;95958.75;5071619;28;20452;-73
2023/04/01 07:47:34;;;;;;;6.15;1.48;;;9.30;99.90;;;8.35;100.00;95973.00;5072430;28;20399;-72
2023/04/01 07:50:13;;;;;;;2.72;1.30;;;9.30;99.90;;;8.34;100.00;95979.34;5071843;28;20825;-73
2023/04/01 07:52:49;;;;;;;7.85;1.40;;;9.20;99.90;;;8.47;100.00;95968.22;5072099;28;20477;-73
2023/04/01 07:55:21;;;;;;;4.20;1.60;;;9.30;99.90;;;8.49;100.00;95969.50;5072201;28;20629;-76
2023/04/01 07:57:56;;;;;;;4.85;1.38;;;9.40;99.90;;;8.64;100.00;95970.50;5072244;28;20461;-76
2023/04/01 08:00:27;;;;;;;2.05;1.27;;;9.50;99.90;;;8.78;100.00;95961.69;5072031;28;20407;-76
2023/04/01 08:03:20;;;;;;;4.25;1.42;;;9.70;99.90;;;8.90;100.00;95970.06;5072141;28;20423;-76
2023/04/01 08:05:55;;;;;;;3.33;1.40;;;9.70;99.90;;;8.88;100.00;95968.75;5072162;28;20419;-76
2023/04/01 08:08:36;;;;;;;3.25;1.20;;;9.80;99.90;;;8.72;100.00;95967.28;5072417;28;20461;-76
2023/04/01 08:11:13;;;;;;;5.03;1.60;;;9.70;99.90;;;8.81;100.00;95965.63;5072075;28;20744;-75
2023/04/01 08:13:51;;;;;;;3.90;1.30;;;9.70;99.90;;;8.86;100.00;95953.19;5072186;28;20452;-76
2023/04/01 08:16:25;;;;;;;4.22;1.45;;;9.70;99.90;;;8.84;100.00;95957.97;5072004;28;20498;-76
2023/04/01 08:19:03;;;;;;;4.05;1.17;;;9.80;99.90;;;8.88;100.00;95974.00;5053924;28;20865;-76
2023/04/01 08:21:38;;;;;;;3.07;1.37;;;9.70;99.90;;;8.90;100.00;95977.19;5053796;28;20483;-76
2023/04/01 08:24:17;;;;;;;1.88;1.20;;;9.80;99.90;;;8.90;100.00;95962.13;5072431;28;20392;-76
2023/04/01 08:26:48;;;;;;;3.03;1.15;;;9.80;99.90;;;9.04;100.00;95969.41;5071654;28;20416;-76
2023/04/01 08:29:20;;;;;;;2.42;1.20;;;9.90;99.90;;;9.23;100.00;95984.34;5071575;28;20399;-75
2023/04/01 08:31:55;;;;;;;5.03;1.40;;;10.00;99.90;;;9.12;100.00;95984.66;5071437;28;20400;-76
2023/04/01 08:34:30;;;;;;;5.32;1.50;;;10.10;99.90;;;9.03;100.00;95978.41;5071558;28;20404;-76
2023/04/01 08:37:04;;;;;;;2.28;1.40;;;10.00;99.90;;;9.07;100.00;95982.06;5070876;28;20396;-77
2023/04/01 08:39:35;;;;;;;2.47;1.30;;;9.90;99.90;;;9.12;100.00;95984.66;5071009;28;20460;-76
2023/04/01 08:42:36;;;;;;;1.73;1.20;;;10.00;99.90;;;9.08;100.00;95981.03;5071275;28;20928;-76
2023/04/01 08:45:25;;;;;;;3.63;1.60;;;9.90;99.90;;;8.78;100.00;95979.38;5071371;28;20426;-77
2023/04/01 08:48:47;;;;;;;4.75;1.23;;;9.70;99.90;;;8.30;100.00;95986.97;5071492;28;20445;-77
2023/04/01 08:52:04;;;;;;;3.33;1.35;;;9.30;99.90;;;8.10;100.00;95993.13;5068554;28;20412;-77
2023/04/01 08:54:51;;;;;;;3.00;1.50;;;9.10;99.90;;;7.99;100.00;95977.59;5053083;28;20997;-76
2023/04/01 08:57:31;;;;;;;3.58;1.23;;;9.00;99.90;;;7.96;100.00;95980.78;5071043;28;20926;-76
2023/04/01 09:00:14;;;;;;;3.13;1.47;;;8.90;99.90;;;7.97;100.00;95988.41;5071222;28;20438;-76
2023/04/01 09:03:41;;;;;;;4.05;1.50;;;8.90;99.90;;;7.85;100.00;95981.84;5079273;28;20394;-76
2023/04/01 09:06:29;;;;;;;3.83;1.55;;;8.80;99.90;;;7.97;100.00;95980.50;5051161;28;20511;-76
2023/04/01 09:09:26;;;;;;;2.60;1.30;;;8.90;99.90;;;7.87;100.00;95982.38;5051214;28;20413;-76
2023/04/01 09:12:26;;;;;;;1.90;1.60;;;8.80;99.90;;;8.07;100.00;95998.13;5053521;28;20446;-76
2023/04/01 09:15:16;;;;;;;2.53;1.40;;;8.90;99.90;;;8.05;100.00;95984.44;5070654;22;20433;-74
2023/04/01 09:18:13;;;;;;;2.65;1.20;;;9.00;99.90;;;8.47;100.00;95982.19;5028690;28;20438;-74
2023/04/01 09:21:18;;;;;;;2.28;1.10;;;9.20;99.90;;;8.83;100.00;95988.03;5020337;28;20402;-75
2023/04/01 09:24:20;;;;;;;1.50;1.20;;;9.60;99.90;;;8.78;100.00;95993.34;5033766;28;20399;-74
2023/04/01 09:27:08;;;;;;;2.97;1.27;;;9.70;99.90;;;9.05;100.00;96000.81;5035340;28;20430;-75
2023/04/01 09:29:59;;;;;;;1.70;1.03;;;9.80;99.90;;;9.24;100.00;95993.03;5017000;28;20403;-74
2023/04/01 09:32:56;;;;;;;1.00;0.90;;;10.10;99.90;;;9.14;100.00;95993.13;5033405;28;20493;-75
2023/04/01 09:35:25;;;;;;;2.00;1.10;;;10.00;99.90;;;9.28;100.00;95996.69;5037009;28;20387;-75
2023/04/01 09:38:06;;;;;;;1.15;1.02;;;10.10;99.90;;;9.19;100.00;95988.56;5036209;28;20410;-75
2023/04/01 09:40:45;;;;;;;1.10;0.95;;;10.10;99.90;;;9.04;100.00;95983.41;5036125;28;20399;-75
2023/04/01 09:43:27;;;;;;;2.20;1.10;;;9.90;99.90;;;9.00;100.00;96000.88;5036471;28;20499;-75
2023/04/01 09:46:11;;;;;;;1.70;1.00;;;9.80;99.90;;;9.05;100.00;96005.31;5035326;28;20415;-75
2023/04/01 09:49:00;;;;;;;2.00;1.10;;;9.90;99.90;;;9.14;100.00;96011.59;5037668;28;20403;-75
2023/04/01 09:51:37;;;;;;;1.27;0.97;;;10.00;99.90;;;8.76;100.00;95999.97;5037331;28;20402;-75
2023/04/01 09:54:23;;;;;;;1.48;1.00;;;9.60;99.90;;;8.76;100.00;96003.38;5019210;28;20511;-75
2023/04/01 09:57:34;;;;;;;0.98;0.98;;;9.70;99.90;;;8.67;100.00;96007.66;5035716;28;20406;-75
2023/04/01 10:00:40;;;;;;;2.75;1.10;;;9.40;99.90;;;8.53;100.00;96009.31;5025958;28;20399;-75
2023/04/01 10:03:45;;;;;;;1.15;1.05;;;9.40;99.90;;;8.72;100.00;96010.25;5018981;28;20436;-75
2023/04/01 10:07:15;;;;;;;1.23;1.08;;;9.60;99.90;;;8.80;100.00;96022.88;5017947;28;20424;-75
2023/04/01 10:10:39;;;;;;;1.00;1.00;;;9.70;99.90;;;8.69;100.00;96025.84;5010287;28;20408;-75
2023/04/01 10:14:01;;;;;;;0.80;0.80;;;9.60;99.90;;;8.65;100.00;96022.94;5001657;28;20873;-75
2023/04/01 10:17:11;;;;;;;1.25;1.02;;;9.50;99.90;;;8.59;100.00;96020.63;5026571;28;20894;-75
2023/04/01 10:20:24;;;;;;;0.98;0.90;;;9.40;99.90;;;8.85;100.00;96011.53;5031391;28;20416;-75
2023/04/01 10:23:20;;;;;;;1.00;0.90;;;9.70;99.90;;;9.38;100.00;96014.31;5015004;28;20411;-75
2023/04/01 10:26:12;;;;;;;1.60;1.00;;;10.10;99.90;;;9.42;100.00;96018.75;5024105;28;20848;-76
2023/04/01 10:29:32;;;;;;;0.80;0.80;;;10.30;99.90;;;9.71;100.00;96013.47;5024451;28;20399;-76
2023/04/01 10:32:48;;;;;;;0.90;0.90;;;10.50;99.90;;;9.80;100.00;96006.53;5017948;28;20518;-76
2023/04/01 10:36:00;;;;;;;0.85;0.80;;;10.70;99.90;;;10.02;100.00;96008.69;5036995;28;20431;-75
2023/04/01 10:39:07;;;;;;;1.02;0.80;;;10.80;99.90;;;9.84;100.00;96017.34;5036008;28;20502;-75
2023/04/01 10:42:25;;;;;;;0.88;0.80;;;10.70;99.90;;;9.82;100.00;96017.63;5018251;28;20460;-75
2023/04/01 10:45:21;;;;;;;1.20;0.90;;;10.60;99.90;;;10.06;100.00;96012.38;5035868;28;20403;-75
2023/04/01 10:48:21;;;;;;;0.80;0.80;;;10.70;99.90;;;9.88;100.00;96021.78;5041546;28;20478;-75
2023/04/01 10:51:14;;;;;;;0.80;0.80;;;10.70;99.90;;;10.05;100.00;96032.72;5043220;28;20891;-76
2023/04/01 10:54:03;;;;;;;0.70;0.70;;;10.90;99.90;;;10.04;100.00;96023.22;5026574;28;20405;-75
2023/04/01 10:56:55;;;;;;;0.80;0.80;;;10.90;99.90;;;9.99;100.00;96019.84;5023296;28;20429;-75
2023/04/01 11:00:15;;;;;;;0.70;0.70;;;10.90;99.90;;;10.05;100.00;96011.56;5036862;28;20398;-74
2023/04/01 11:03:43;;;;;;;0.70;0.70;;;10.90;99.90;;;9.91;100.00;96010.66;5027432;28;20389;-74
2023/04/01 11:06:56;;;;;;;1.27;0.85;;;10.80;99.90;;;10.06;100.00;96018.44;5027352;28;20419;-75